createdAt,value
2023-01-29T00:02:11.524Z,87.25
2023-01-29T00:04:39.803Z,87.24
2023-01-29T00:07:08.636Z,87.12
2023-01-29T00:09:36.659Z,87.36
2023-01-29T00:12:04.678Z,87.51
2023-01-29T00:14:32.831Z,87.58
2023-01-29T00:17:01.236Z,87.33
2023-01-29T00:19:29.142Z,87.34
2023-01-29T00:21:57.180Z,87.25
2023-01-29T00:24:25.013Z,87.28
2023-01-29T00:26:52.957Z,87.59
2023-01-29T00:29:21.991Z,87.50
2023-01-29T00:31:50.246Z,87.78
2023-01-29T00:34:18.177Z,87.82
2023-01-29T00:36:47.327Z,87.64
2023-01-29T00:39:15.407Z,87.65
2023-01-29T00:42:01.854Z,87.48
2023-01-29T00:44:48.454Z,87.61
2023-01-29T00:47:30.973Z,88.02
2023-01-29T00:49:59.587Z,87.86
2023-01-29T00:52:28.709Z,87.81
2023-01-29T00:54:57.731Z,87.61
2023-01-29T00:57:27.315Z,87.44
2023-01-29T00:59:55.552Z,87.59
2023-01-29T01:02:42.648Z,87.71
2023-01-29T01:05:18.118Z,87.56
2023-01-29T01:07:50.785Z,87.69
2023-01-29T01:10:23.255Z,87.66
2023-01-29T01:12:51.836Z,87.45
2023-01-29T01:15:19.986Z,87.28
2023-01-29T01:17:48.976Z,87.26
2023-01-29T01:20:17.396Z,87.69
2023-01-29T01:22:45.483Z,87.58
2023-01-29T01:25:13.357Z,87.63
2023-01-29T01:27:41.568Z,87.76
2023-01-29T01:30:11.272Z,87.33
2023-01-29T01:32:39.863Z,87.28
2023-01-29T01:35:09.608Z,87.26
2023-01-29T01:37:38.651Z,87.36
2023-01-29T01:40:12.994Z,87.15
2023-01-29T01:42:41.365Z,86.98
2023-01-29T01:45:17.608Z,86.90
2023-01-29T01:47:51.487Z,87.36
2023-01-29T01:50:22.036Z,87.41
2023-01-29T01:52:53.167Z,86.99
2023-01-29T01:55:23.227Z,86.90
2023-01-29T01:57:53.802Z,86.83
2023-01-29T02:00:22.230Z,86.97
2023-01-29T02:03:08.853Z,86.99
2023-01-29T02:05:56.357Z,86.49
2023-01-29T02:08:51.132Z,86.31
2023-01-29T02:11:19.608Z,86.21
2023-01-29T02:13:53.736Z,86.60
2023-01-29T02:16:26.395Z,86.40
2023-01-29T02:18:56.615Z,86.05
2023-01-29T02:21:46.365Z,86.14
2023-01-29T02:24:33.147Z,86.28
2023-01-29T02:27:10.147Z,85.78
2023-01-29T02:29:41.204Z,85.62
2023-01-29T02:32:20.617Z,85.16
2023-01-29T02:35:19.770Z,84.81
2023-01-29T02:38:06.457Z,84.68
2023-01-29T02:40:44.148Z,85.22
2023-01-29T02:43:15.108Z,85.57
2023-01-29T02:46:01.934Z,85.61
2023-01-29T02:48:38.868Z,85.65
2023-01-29T02:51:11.129Z,85.79
2023-01-29T02:53:50.492Z,85.80
2023-01-29T02:56:24.839Z,86.01
2023-01-29T02:58:57.773Z,85.80
2023-01-29T03:01:55.317Z,86.02
2023-01-29T03:04:26.967Z,86.03
2023-01-29T03:06:59.086Z,85.71
2023-01-29T03:09:31.168Z,85.89
2023-01-29T03:12:20.142Z,85.98
2023-01-29T03:15:09.332Z,85.86
2023-01-29T03:17:44.747Z,85.89
2023-01-29T03:20:17.043Z,85.88
2023-01-29T03:22:48.824Z,85.70
2023-01-29T03:25:36.614Z,85.63
2023-01-29T03:28:25.216Z,85.85
2023-01-29T03:31:15.847Z,85.71
2023-01-29T03:33:50.722Z,85.34
2023-01-29T03:36:27.128Z,85.59
2023-01-29T03:38:55.078Z,85.42
2023-01-29T03:41:22.935Z,85.00
2023-01-29T03:43:51.103Z,85.09
2023-01-29T03:46:24.590Z,85.08
2023-01-29T03:49:08.385Z,85.30
2023-01-29T03:51:55.728Z,85.13
2023-01-29T03:54:28.351Z,85.16
2023-01-29T03:56:59.749Z,85.51
2023-01-29T03:59:27.955Z,85.45
2023-01-29T04:02:27.452Z,85.18
2023-01-29T04:04:57.815Z,85.34
2023-01-29T04:07:26.657Z,85.23
2023-01-29T04:10:01.964Z,84.94
2023-01-29T04:12:36.897Z,85.27
2023-01-29T04:15:08.308Z,85.07
2023-01-29T04:17:39.852Z,85.24
2023-01-29T04:20:13.872Z,85.36
2023-01-29T04:22:45.012Z,85.19
2023-01-29T04:25:18.441Z,85.27
2023-01-29T04:27:47.478Z,85.06
2023-01-29T04:30:21.116Z,85.03
2023-01-29T04:32:49.398Z,84.99
2023-01-29T04:35:24.082Z,85.19
2023-01-29T04:38:06.420Z,85.15
2023-01-29T04:40:37.699Z,85.02
2023-01-29T04:43:05.525Z,85.43
2023-01-29T04:45:33.551Z,85.58
2023-01-29T04:48:20.578Z,85.36
2023-01-29T04:51:03.588Z,85.13
2023-01-29T04:53:54.958Z,85.12
2023-01-29T04:56:25.985Z,84.90
2023-01-29T04:58:57.420Z,85.03
2023-01-29T05:01:29.831Z,85.02
2023-01-29T05:03:59.253Z,84.67
2023-01-29T05:06:27.611Z,84.52
2023-01-29T05:08:56.846Z,84.61
2023-01-29T05:11:25.413Z,84.34
2023-01-29T05:13:53.566Z,84.40
2023-01-29T05:16:26.783Z,84.64
2023-01-29T05:18:54.820Z,84.47
2023-01-29T05:21:23.917Z,84.10
2023-01-29T05:24:09.397Z,84.26
2023-01-29T05:26:55.603Z,84.05
2023-01-29T05:29:23.622Z,84.26
2023-01-29T05:31:51.546Z,84.20
2023-01-29T05:34:19.668Z,84.04
2023-01-29T05:36:47.672Z,83.97
2023-01-29T05:39:15.501Z,83.75
2023-01-29T05:41:43.883Z,84.00
2023-01-29T05:44:11.998Z,83.62
2023-01-29T05:46:40.216Z,83.46
2023-01-29T05:49:08.068Z,83.32
2023-01-29T05:51:36.202Z,83.34
2023-01-29T05:54:04.722Z,83.49
2023-01-29T05:56:32.477Z,83.66
2023-01-29T05:59:00.470Z,83.67
2023-01-29T06:01:28.335Z,83.64
2023-01-29T06:03:56.336Z,83.63
2023-01-29T06:06:24.431Z,83.93
2023-01-29T06:08:52.446Z,83.96
2023-01-29T06:11:20.724Z,83.98
2023-01-29T06:13:48.972Z,84.05
2023-01-29T06:16:17.075Z,84.04
2023-01-29T06:18:45.065Z,84.32
2023-01-29T06:21:13.633Z,84.16
2023-01-29T06:23:41.700Z,84.21
2023-01-29T06:26:13.727Z,84.29
2023-01-29T06:28:41.992Z,84.23
2023-01-29T06:31:30.393Z,84.39
2023-01-29T06:33:58.745Z,84.26
2023-01-29T06:36:26.593Z,84.11
2023-01-29T06:38:54.484Z,83.84
2023-01-29T06:41:25.728Z,83.85
2023-01-29T06:43:53.769Z,83.19
2023-01-29T06:46:21.697Z,83.22
2023-01-29T06:48:50.075Z,83.28
2023-01-29T06:51:18.311Z,83.40
2023-01-29T06:53:46.911Z,83.30
2023-01-29T06:56:14.895Z,82.63
2023-01-29T06:58:43.686Z,82.48
2023-01-29T07:01:17.545Z,82.82
2023-01-29T07:03:53.185Z,82.94
2023-01-29T07:06:21.196Z,82.42
2023-01-29T07:08:49.098Z,82.57
2023-01-29T07:11:17.413Z,81.88
2023-01-29T07:13:45.235Z,81.91
2023-01-29T07:16:13.196Z,82.11
2023-01-29T07:18:41.096Z,81.45
2023-01-29T07:21:09.238Z,81.66
2023-01-29T07:23:37.563Z,82.01
2023-01-29T07:26:06.073Z,82.02
2023-01-29T07:28:38.199Z,81.76
2023-01-29T07:31:06.683Z,81.98
2023-01-29T07:33:34.670Z,81.60
2023-01-29T07:36:02.793Z,81.07
2023-01-29T07:38:30.796Z,80.85
2023-01-29T07:40:58.608Z,81.02
2023-01-29T07:43:26.641Z,80.99
2023-01-29T07:45:54.663Z,81.15
2023-01-29T07:48:23.638Z,80.91
2023-01-29T07:50:59.013Z,81.02
2023-01-29T07:53:28.041Z,80.99
2023-01-29T07:55:55.913Z,80.88
2023-01-29T07:58:23.870Z,80.97
2023-01-29T08:00:51.734Z,80.83
2023-01-29T08:03:22.763Z,80.70
2023-01-29T08:05:50.720Z,80.81
2023-01-29T08:08:19.444Z,80.22
2023-01-29T08:10:47.490Z,79.97
2023-01-29T08:13:15.380Z,79.84
2023-01-29T08:15:45.153Z,79.77
2023-01-29T08:18:13.763Z,79.63
2023-01-29T08:20:41.773Z,79.47
2023-01-29T08:23:12.705Z,79.67
2023-01-29T08:25:40.756Z,79.54
2023-01-29T08:28:09.012Z,79.49
2023-01-29T08:30:37.073Z,79.41
2023-01-29T08:33:04.972Z,79.46
2023-01-29T08:35:32.889Z,79.25
2023-01-29T08:38:03.589Z,79.19
2023-01-29T08:40:33.547Z,78.72
2023-01-29T08:43:03.536Z,78.75
2023-01-29T08:45:37.055Z,79.01
2023-01-29T08:48:05.374Z,79.04
2023-01-29T08:50:34.969Z,78.78
2023-01-29T08:53:04.095Z,78.66
2023-01-29T08:55:32.004Z,78.76
2023-01-29T08:58:00.062Z,78.56
2023-01-29T09:00:28.199Z,78.29
2023-01-29T09:02:56.286Z,78.53
2023-01-29T09:05:24.727Z,78.23
2023-01-29T09:07:54.207Z,78.34
2023-01-29T09:10:22.671Z,78.15
2023-01-29T09:12:50.715Z,77.72
2023-01-29T09:15:19.172Z,77.81
2023-01-29T09:17:49.488Z,77.86
2023-01-29T09:20:18.065Z,77.94
2023-01-29T09:22:46.528Z,77.90
2023-01-29T09:25:15.165Z,77.73
2023-01-29T09:27:43.533Z,77.50
2023-01-29T09:30:12.857Z,77.30
2023-01-29T09:32:53.221Z,76.43
2023-01-29T09:35:22.985Z,76.82
2023-01-29T09:37:51.009Z,76.81
2023-01-29T09:40:39.175Z,76.09
2023-01-29T09:43:22.741Z,75.95
2023-01-29T09:45:56.352Z,75.40
2023-01-29T09:48:26.835Z,75.39
2023-01-29T09:50:57.220Z,75.93
2023-01-29T09:53:32.691Z,75.60
2023-01-29T09:56:29.087Z,75.23
2023-01-29T09:59:00.554Z,75.48
2023-01-29T10:01:51.286Z,75.14
2023-01-29T10:04:31.209Z,75.19
2023-01-29T10:07:17.237Z,74.92
2023-01-29T10:09:57.666Z,74.38
2023-01-29T10:12:28.879Z,73.89
2023-01-29T10:15:06.105Z,73.37
2023-01-29T10:17:43.387Z,74.14
2023-01-29T10:20:29.635Z,74.18
2023-01-29T10:23:18.584Z,73.93
2023-01-29T10:25:47.504Z,73.70
2023-01-29T10:28:21.446Z,73.56
2023-01-29T10:30:50.645Z,73.03
2023-01-29T10:33:23.903Z,72.91
2023-01-29T10:35:55.897Z,73.17
2023-01-29T10:38:44.884Z,73.27
2023-01-29T10:41:31.182Z,73.30
2023-01-29T10:43:59.132Z,73.41
2023-01-29T10:46:45.781Z,73.46
2023-01-29T10:49:19.739Z,73.49
2023-01-29T10:51:56.901Z,73.60
2023-01-29T10:54:40.784Z,73.09
2023-01-29T10:57:20.793Z,73.32
2023-01-29T10:59:52.107Z,72.87
2023-01-29T11:02:22.993Z,73.34
2023-01-29T11:04:51.618Z,72.98
2023-01-29T11:07:22.143Z,72.70
2023-01-29T11:10:09.986Z,72.44
2023-01-29T11:12:39.014Z,72.73
2023-01-29T11:15:14.821Z,72.55
2023-01-29T11:18:01.003Z,73.03
2023-01-29T11:20:30.116Z,72.62
2023-01-29T11:22:59.397Z,73.01
2023-01-29T11:25:29.885Z,73.27
2023-01-29T11:28:01.941Z,72.42
2023-01-29T11:30:34.542Z,72.94
2023-01-29T11:33:05.490Z,73.22
2023-01-29T11:35:34.080Z,73.41
2023-01-29T11:38:22.798Z,73.57
2023-01-29T11:40:50.965Z,73.85
2023-01-29T11:43:27.571Z,74.04
2023-01-29T11:45:57.733Z,74.45
2023-01-29T11:48:30.449Z,74.10
2023-01-29T11:51:04.863Z,74.50
2023-01-29T11:53:44.359Z,74.83
2023-01-29T11:56:29.073Z,74.94
2023-01-29T11:58:58.099Z,74.63
2023-01-29T12:01:40.341Z,74.25
2023-01-29T12:04:24.789Z,73.94
2023-01-29T12:06:53.785Z,73.51
2023-01-29T12:09:27.374Z,72.78
2023-01-29T12:11:55.326Z,72.82
2023-01-29T12:14:37.025Z,72.64
2023-01-29T12:17:08.873Z,71.28
2023-01-29T12:19:39.608Z,71.23
2023-01-29T12:22:16.882Z,71.60
2023-01-29T12:24:59.122Z,71.34
2023-01-29T12:27:46.403Z,71.87
2023-01-29T12:30:36.648Z,72.49
2023-01-29T12:33:12.670Z,72.78
2023-01-29T12:35:47.267Z,72.94
2023-01-29T12:38:19.030Z,72.55
2023-01-29T12:40:58.204Z,72.48
2023-01-29T12:43:37.831Z,72.28
2023-01-29T12:46:09.799Z,72.11
2023-01-29T12:48:39.701Z,71.59
2023-01-29T12:51:09.995Z,72.28
2023-01-29T12:53:39.944Z,72.36
2023-01-29T12:56:29.354Z,72.32
2023-01-29T12:58:59.420Z,72.70
2023-01-29T13:01:36.908Z,73.21
2023-01-29T13:04:16.857Z,73.27
2023-01-29T13:06:55.254Z,73.11
2023-01-29T13:09:26.946Z,73.53
2023-01-29T13:11:57.958Z,74.05
2023-01-29T13:14:31.825Z,74.17
2023-01-29T13:17:10.375Z,74.03
2023-01-29T13:19:41.331Z,73.87
2023-01-29T13:22:22.396Z,74.01
2023-01-29T13:25:03.561Z,73.96
2023-01-29T13:27:34.479Z,73.74
2023-01-29T13:30:03.368Z,73.02
2023-01-29T13:32:32.694Z,73.17
2023-01-29T13:35:20.917Z,73.39
2023-01-29T13:37:53.958Z,73.23
2023-01-29T13:40:24.852Z,73.52
2023-01-29T13:42:54.387Z,73.67
2023-01-29T13:45:35.714Z,73.94
2023-01-29T13:48:12.732Z,74.06
2023-01-29T13:50:42.688Z,74.24
2023-01-29T13:53:21.160Z,74.14
2023-01-29T13:55:49.122Z,74.37
2023-01-29T13:58:46.798Z,74.63
2023-01-29T14:01:14.786Z,74.69
2023-01-29T14:04:03.622Z,74.89
2023-01-29T14:06:38.435Z,74.81
2023-01-29T14:09:26.273Z,75.34
2023-01-29T14:11:54.411Z,75.24
2023-01-29T14:14:40.758Z,74.90
2023-01-29T14:17:08.855Z,74.17
2023-01-29T14:19:36.863Z,73.59
2023-01-29T14:22:05.641Z,73.50
2023-01-29T14:24:33.990Z,72.94
2023-01-29T14:27:03.595Z,72.95
2023-01-29T14:29:38.226Z,72.71
2023-01-29T14:32:07.486Z,72.86
2023-01-29T14:34:41.699Z,73.29
2023-01-29T14:37:15.529Z,73.49
2023-01-29T14:39:44.932Z,73.25
2023-01-29T14:42:16.001Z,73.36
2023-01-29T14:44:55.955Z,73.55
2023-01-29T14:47:32.689Z,73.26
2023-01-29T14:50:02.126Z,73.06
2023-01-29T14:52:35.897Z,73.08
2023-01-29T14:55:05.992Z,73.30
2023-01-29T14:57:35.010Z,73.42
2023-01-29T15:00:07.277Z,73.73
2023-01-29T15:02:41.116Z,73.82
2023-01-29T15:05:14.286Z,73.91
2023-01-29T15:07:48.920Z,73.95
2023-01-29T15:10:22.762Z,73.98
2023-01-29T15:13:03.122Z,73.67
2023-01-29T15:15:42.703Z,73.91
2023-01-29T15:18:16.374Z,74.06
2023-01-29T15:20:44.700Z,73.83
2023-01-29T15:23:24.670Z,74.26
2023-01-29T15:25:54.324Z,74.18
2023-01-29T15:28:22.503Z,74.44
2023-01-29T15:30:54.102Z,74.40
2023-01-29T15:33:23.299Z,74.51
2023-01-29T15:36:06.319Z,74.53
2023-01-29T15:38:35.232Z,74.52
2023-01-29T15:41:14.696Z,74.51
2023-01-29T15:43:50.011Z,74.41
2023-01-29T15:46:21.156Z,74.47
2023-01-29T15:48:49.760Z,74.61
2023-01-29T15:51:20.239Z,74.47
2023-01-29T15:53:53.339Z,73.92
2023-01-29T15:56:41.629Z,73.75
2023-01-29T15:59:15.300Z,74.07
2023-01-29T16:01:43.506Z,74.21
2023-01-29T16:04:15.087Z,74.20
2023-01-29T16:06:43.877Z,74.23
2023-01-29T16:09:15.926Z,74.14
2023-01-29T16:11:44.095Z,74.09
2023-01-29T16:14:17.559Z,74.12
2023-01-29T16:16:45.651Z,73.98
2023-01-29T16:19:14.309Z,73.75
2023-01-29T16:21:45.898Z,73.60
2023-01-29T16:24:22.211Z,73.71
2023-01-29T16:26:51.655Z,73.88
2023-01-29T16:29:21.882Z,73.69
2023-01-29T16:31:52.216Z,73.60
2023-01-29T16:34:20.066Z,73.72
2023-01-29T16:36:48.777Z,73.76
2023-01-29T16:39:22.451Z,73.67
2023-01-29T16:42:17.149Z,73.66
2023-01-29T16:44:51.282Z,73.51
2023-01-29T16:47:38.572Z,73.68
2023-01-29T16:50:18.475Z,73.63
2023-01-29T16:53:03.789Z,73.92
2023-01-29T16:55:33.576Z,74.11
2023-01-29T16:58:04.455Z,74.12
2023-01-29T17:00:33.375Z,74.15
2023-01-29T17:03:05.179Z,74.21
2023-01-29T17:05:37.767Z,74.18
2023-01-29T17:08:06.683Z,74.11
2023-01-29T17:10:35.973Z,74.09
2023-01-29T17:13:05.774Z,74.07
2023-01-29T17:15:46.130Z,73.85
2023-01-29T17:18:21.568Z,73.97
2023-01-29T17:20:50.365Z,73.92
2023-01-29T17:23:18.615Z,73.77
2023-01-29T17:25:47.029Z,73.72
2023-01-29T17:28:16.275Z,73.60
2023-01-29T17:30:50.614Z,73.94
2023-01-29T17:33:26.127Z,73.86
2023-01-29T17:35:54.193Z,74.00
2023-01-29T17:38:26.453Z,73.74
2023-01-29T17:40:57.353Z,74.06
2023-01-29T17:43:26.370Z,73.90
2023-01-29T17:45:54.892Z,73.88
2023-01-29T17:48:24.023Z,73.81
2023-01-29T17:50:53.673Z,74.24
2023-01-29T17:53:23.615Z,74.09
2023-01-29T17:55:51.864Z,73.48
2023-01-29T17:58:24.501Z,73.31
2023-01-29T18:00:53.151Z,73.21
2023-01-29T18:03:21.725Z,73.58
2023-01-29T18:05:50.462Z,74.01
2023-01-29T18:08:18.306Z,73.66
2023-01-29T18:10:47.013Z,73.49
2023-01-29T18:13:15.102Z,73.61
2023-01-29T18:15:43.121Z,73.55
2023-01-29T18:18:16.041Z,73.69
2023-01-29T18:20:45.127Z,73.67
2023-01-29T18:23:13.436Z,73.92
2023-01-29T18:25:41.569Z,73.92
2023-01-29T18:28:13.016Z,74.00
2023-01-29T18:30:42.350Z,73.70
2023-01-29T18:33:10.472Z,73.83
2023-01-29T18:35:38.372Z,73.98
2023-01-29T18:38:06.347Z,73.79
2023-01-29T18:40:35.165Z,74.09
2023-01-29T18:43:04.354Z,73.79
2023-01-29T18:45:32.451Z,73.67
2023-01-29T18:48:00.576Z,73.65
2023-01-29T18:50:28.606Z,73.68
2023-01-29T18:52:56.529Z,73.31
2023-01-29T18:55:26.504Z,73.90
2023-01-29T18:58:26.655Z,73.70
2023-01-29T19:00:42.749Z,73.77
2023-01-29T19:03:10.939Z,73.94
2023-01-29T19:05:39.058Z,74.08
2023-01-29T19:08:07.040Z,73.91
2023-01-29T19:10:35.176Z,74.09
2023-01-29T19:13:05.296Z,73.92
2023-01-29T19:15:34.125Z,74.04
2023-01-29T19:18:02.135Z,74.30
2023-01-29T19:20:30.240Z,74.05
2023-01-29T19:22:58.375Z,73.87
2023-01-29T19:25:26.276Z,73.71
2023-01-29T19:27:54.891Z,73.43
2023-01-29T19:30:23.098Z,73.41
2023-01-29T19:32:51.877Z,73.32
2023-01-29T19:35:20.416Z,73.11
2023-01-29T19:37:48.436Z,72.95
2023-01-29T19:40:16.476Z,72.86
2023-01-29T19:42:44.427Z,72.78
2023-01-29T19:45:12.558Z,72.60
2023-01-29T19:47:42.155Z,72.69
2023-01-29T19:50:10.660Z,72.66
2023-01-29T19:52:51.081Z,72.44
2023-01-29T19:55:20.437Z,72.15
2023-01-29T19:57:48.601Z,72.36
2023-01-29T20:00:17.605Z,72.18
2023-01-29T20:02:46.027Z,72.09
2023-01-29T20:05:17.204Z,72.56
2023-01-29T20:07:45.532Z,72.36
2023-01-29T20:10:17.745Z,72.52
2023-01-29T20:12:46.258Z,72.51
2023-01-29T20:15:14.571Z,72.62
2023-01-29T20:17:45.542Z,72.89
2023-01-29T20:20:14.033Z,72.76
2023-01-29T20:22:42.107Z,72.57
2023-01-29T20:25:13.782Z,72.58
2023-01-29T20:27:41.944Z,72.33
2023-01-29T20:30:10.274Z,72.39
2023-01-29T20:32:38.175Z,72.47
2023-01-29T20:35:06.363Z,72.34
2023-01-29T20:37:34.251Z,72.59
2023-01-29T20:40:02.313Z,72.61
2023-01-29T20:42:30.240Z,72.68
2023-01-29T20:44:58.207Z,72.62
2023-01-29T20:47:26.045Z,72.55
2023-01-29T20:49:53.994Z,72.39
2023-01-29T20:52:21.873Z,72.42
2023-01-29T20:54:50.318Z,72.62
2023-01-29T20:57:18.392Z,72.61
2023-01-29T20:59:46.348Z,72.76
2023-01-29T21:02:14.235Z,73.02
2023-01-29T21:04:44.277Z,73.17
2023-01-29T21:07:12.442Z,73.06
2023-01-29T21:09:40.460Z,73.06
2023-01-29T21:12:08.688Z,73.04
2023-01-29T21:14:36.650Z,72.77
2023-01-29T21:17:04.971Z,72.22
2023-01-29T21:19:33.115Z,72.04
2023-01-29T21:22:01.019Z,71.84
2023-01-29T21:24:29.009Z,71.93
2023-01-29T21:26:57.008Z,71.46
2023-01-29T21:29:24.801Z,71.17
2023-01-29T21:31:52.764Z,70.52
2023-01-29T21:34:20.844Z,70.33
2023-01-29T21:36:48.624Z,69.54
2023-01-29T21:39:21.118Z,69.47
2023-01-29T21:42:07.931Z,69.50
2023-01-29T21:44:36.609Z,69.84
2023-01-29T21:47:14.374Z,69.50
2023-01-29T21:49:43.150Z,69.83
2023-01-29T21:52:12.375Z,69.69
2023-01-29T21:54:40.862Z,69.46
2023-01-29T21:57:12.032Z,69.17
2023-01-29T21:59:40.184Z,69.07
2023-01-29T22:02:12.039Z,69.33
2023-01-29T22:04:40.315Z,69.12
2023-01-29T22:07:08.820Z,69.31
2023-01-29T22:09:37.264Z,69.41
2023-01-29T22:12:07.757Z,69.50
2023-01-29T22:14:35.812Z,69.42
2023-01-29T22:17:04.173Z,69.27
2023-01-29T22:19:32.039Z,69.34
2023-01-29T22:22:00.154Z,69.11
2023-01-29T22:24:27.975Z,69.24
2023-01-29T22:26:55.791Z,69.45
2023-01-29T22:29:23.992Z,69.59
2023-01-29T22:31:51.768Z,69.68
2023-01-29T22:34:19.721Z,69.61
2023-01-29T22:36:47.968Z,69.38
2023-01-29T22:39:15.772Z,69.45
2023-01-29T22:41:43.643Z,69.13
2023-01-29T22:44:11.760Z,69.09
2023-01-29T22:46:39.888Z,69.22
2023-01-29T22:49:07.750Z,68.95
2023-01-29T22:51:35.708Z,69.03
2023-01-29T22:54:03.546Z,69.11
2023-01-29T22:56:31.406Z,69.32
2023-01-29T22:59:00.297Z,69.22
2023-01-29T23:01:29.919Z,69.21
2023-01-29T23:03:58.010Z,68.98
2023-01-29T23:06:26.055Z,69.12
2023-01-29T23:08:54.022Z,68.96
2023-01-29T23:11:23.619Z,69.03
2023-01-29T23:13:53.017Z,68.60
2023-01-29T23:16:26.996Z,68.46
2023-01-29T23:18:56.597Z,68.59
2023-01-29T23:21:25.281Z,68.70
2023-01-29T23:23:55.329Z,68.82
2023-01-29T23:26:42.001Z,69.15
2023-01-29T23:29:10.197Z,68.79
2023-01-29T23:31:38.966Z,68.89
2023-01-29T23:34:07.018Z,68.80
2023-01-29T23:36:35.020Z,68.77
2023-01-29T23:39:03.053Z,68.54
2023-01-29T23:41:30.937Z,68.78
2023-01-29T23:43:58.910Z,68.54
2023-01-29T23:46:26.800Z,68.57
2023-01-29T23:48:54.845Z,68.60
2023-01-29T23:51:22.738Z,68.65
2023-01-29T23:53:50.826Z,68.85
2023-01-29T23:56:18.879Z,68.91
2023-01-29T23:58:46.842Z,68.64
